sensor_id;sensor_type;location;lat;lon;timestamp;P1;durP1;ratioP1;P2;durP2;ratioP2
8964;SDS011;4517;49.020;12.066;2023-01-15T00:00:58;12.70;;;11.70;;
8964;SDS011;4517;49.020;12.066;2023-01-15T00:03:24;14.20;;;12.87;;
8964;SDS011;4517;49.020;12.066;2023-01-15T00:05:50;13.40;;;11.70;;
8964;SDS011;4517;49.020;12.066;2023-01-15T00:08:16;12.70;;;11.43;;
8964;SDS011;4517;49.020;12.066;2023-01-15T00:10:41;15.00;;;11.57;;
8964;SDS011;4517;49.020;12.066;2023-01-15T00:13:07;13.20;;;12.10;;
8964;SDS011;4517;49.020;12.066;2023-01-15T00:15:32;12.70;;;11.40;;
8964;SDS011;4517;49.020;12.066;2023-01-15T00:17:58;13.57;;;12.20;;
8964;SDS011;4517;49.020;12.066;2023-01-15T00:20:24;13.53;;;12.43;;
8964;SDS011;4517;49.020;12.066;2023-01-15T00:22:49;11.43;;;10.50;;
8964;SDS011;4517;49.020;12.066;2023-01-15T00:25:15;11.53;;;10.40;;
8964;SDS011;4517;49.020;12.066;2023-01-15T00:28:13;12.40;;;11.23;;
8964;SDS011;4517;49.020;12.066;2023-01-15T00:30:39;12.70;;;11.40;;
8964;SDS011;4517;49.020;12.066;2023-01-15T00:33:06;13.03;;;11.70;;
8964;SDS011;4517;49.020;12.066;2023-01-15T00:35:32;12.50;;;11.23;;
8964;SDS011;4517;49.020;12.066;2023-01-15T00:37:57;12.80;;;11.50;;
8964;SDS011;4517;49.020;12.066;2023-01-15T00:40:24;15.03;;;11.27;;
8964;SDS011;4517;49.020;12.066;2023-01-15T00:42:49;11.47;;;10.20;;
8964;SDS011;4517;49.020;12.066;2023-01-15T00:45:15;11.90;;;10.90;;
8964;SDS011;4517;49.020;12.066;2023-01-15T00:47:42;12.53;;;11.30;;
8964;SDS011;4517;49.020;12.066;2023-01-15T00:50:10;11.73;;;10.57;;
8964;SDS011;4517;49.020;12.066;2023-01-15T00:52:38;13.63;;;10.23;;
8964;SDS011;4517;49.020;12.066;2023-01-15T00:55:04;12.17;;;11.17;;
8964;SDS011;4517;49.020;12.066;2023-01-15T00:57:31;12.97;;;11.60;;
8964;SDS011;4517;49.020;12.066;2023-01-15T00:59:57;12.10;;;10.90;;
8964;SDS011;4517;49.020;12.066;2023-01-15T01:02:23;11.47;;;10.50;;
8964;SDS011;4517;49.020;12.066;2023-01-15T01:04:48;15.67;;;10.50;;
8964;SDS011;4517;49.020;12.066;2023-01-15T01:07:14;14.93;;;11.20;;
8964;SDS011;4517;49.020;12.066;2023-01-15T01:09:40;11.83;;;10.83;;
8964;SDS011;4517;49.020;12.066;2023-01-15T01:12:06;13.43;;;11.03;;
8964;SDS011;4517;49.020;12.066;2023-01-15T01:14:32;11.53;;;10.60;;
8964;SDS011;4517;49.020;12.066;2023-01-15T01:16:58;12.63;;;11.00;;
8964;SDS011;4517;49.020;12.066;2023-01-15T01:19:24;12.43;;;11.40;;
8964;SDS011;4517;49.020;12.066;2023-01-15T01:21:50;12.27;;;10.93;;
8964;SDS011;4517;49.020;12.066;2023-01-15T01:24:17;12.23;;;11.13;;
8964;SDS011;4517;49.020;12.066;2023-01-15T01:26:45;10.90;;;10.10;;
8964;SDS011;4517;49.020;12.066;2023-01-15T01:29:11;11.00;;;10.03;;
8964;SDS011;4517;49.020;12.066;2023-01-15T01:31:42;11.20;;;10.30;;
8964;SDS011;4517;49.020;12.066;2023-01-15T01:34:08;11.00;;;10.30;;
8964;SDS011;4517;49.020;12.066;2023-01-15T01:36:35;10.47;;;9.87;;
8964;SDS011;4517;49.020;12.066;2023-01-15T01:39:03;11.27;;;10.57;;
8964;SDS011;4517;49.020;12.066;2023-01-15T01:41:30;11.27;;;10.27;;
8964;SDS011;4517;49.020;12.066;2023-01-15T01:44:00;10.47;;;9.77;;
8964;SDS011;4517;49.020;12.066;2023-01-15T01:46:30;11.10;;;10.00;;
8964;SDS011;4517;49.020;12.066;2023-01-15T01:49:18;10.33;;;9.50;;
8964;SDS011;4517;49.020;12.066;2023-01-15T01:51:47;11.00;;;10.20;;
8964;SDS011;4517;49.020;12.066;2023-01-15T01:54:16;10.07;;;9.47;;
8964;SDS011;4517;49.020;12.066;2023-01-15T01:56:47;11.00;;;9.87;;
8964;SDS011;4517;49.020;12.066;2023-01-15T01:59:13;11.60;;;10.70;;
8964;SDS011;4517;49.020;12.066;2023-01-15T02:01:41;11.87;;;10.97;;
8964;SDS011;4517;49.020;12.066;2023-01-15T02:04:08;12.30;;;11.23;;
8964;SDS011;4517;49.020;12.066;2023-01-15T02:06:36;11.00;;;10.10;;
8964;SDS011;4517;49.020;12.066;2023-01-15T02:09:03;11.70;;;10.70;;
8964;SDS011;4517;49.020;12.066;2023-01-15T02:11:30;11.47;;;10.63;;
8964;SDS011;4517;49.020;12.066;2023-01-15T02:16:42;10.67;;;10.07;;
8964;SDS011;4517;49.020;12.066;2023-01-15T02:21:56;12.03;;;9.83;;
8964;SDS011;4517;49.020;12.066;2023-01-15T02:24:36;11.13;;;10.33;;
8964;SDS011;4517;49.020;12.066;2023-01-15T02:27:15;11.67;;;10.67;;
8964;SDS011;4517;49.020;12.066;2023-01-15T02:38:05;11.37;;;10.40;;
8964;SDS011;4517;49.020;12.066;2023-01-15T02:40:33;11.13;;;10.23;;
8964;SDS011;4517;49.020;12.066;2023-01-15T02:43:00;11.77;;;10.60;;
8964;SDS011;4517;49.020;12.066;2023-01-15T02:45:26;10.87;;;10.20;;
8964;SDS011;4517;49.020;12.066;2023-01-15T02:47:56;12.93;;;10.80;;
8964;SDS011;4517;49.020;12.066;2023-01-15T02:50:27;11.07;;;10.27;;
8964;SDS011;4517;49.020;12.066;2023-01-15T02:53:03;10.60;;;9.80;;
8964;SDS011;4517;49.020;12.066;2023-01-15T02:58:20;11.23;;;10.43;;
8964;SDS011;4517;49.020;12.066;2023-01-15T03:00:50;11.77;;;10.57;;
8964;SDS011;4517;49.020;12.066;2023-01-15T03:06:37;11.07;;;10.20;;
8964;SDS011;4517;49.020;12.066;2023-01-15T03:09:05;16.43;;;10.97;;
8964;SDS011;4517;49.020;12.066;2023-01-15T03:11:33;11.80;;;10.90;;
8964;SDS011;4517;49.020;12.066;2023-01-15T03:14:17;11.27;;;10.50;;
8964;SDS011;4517;49.020;12.066;2023-01-15T03:16:52;12.13;;;10.93;;
8964;SDS011;4517;49.020;12.066;2023-01-15T03:19:30;10.80;;;10.20;;
8964;SDS011;4517;49.020;12.066;2023-01-15T03:24:32;10.10;;;9.27;;
8964;SDS011;4517;49.020;12.066;2023-01-15T03:27:04;10.63;;;9.67;;
8964;SDS011;4517;49.020;12.066;2023-01-15T03:29:32;10.37;;;9.63;;
8964;SDS011;4517;49.020;12.066;2023-01-15T03:32:01;10.10;;;9.10;;
8964;SDS011;4517;49.020;12.066;2023-01-15T03:34:39;10.63;;;9.80;;
8964;SDS011;4517;49.020;12.066;2023-01-15T03:37:28;10.53;;;9.83;;
8964;SDS011;4517;49.020;12.066;2023-01-15T03:39:54;10.70;;;9.87;;
8964;SDS011;4517;49.020;12.066;2023-01-15T03:42:26;10.33;;;9.23;;
8964;SDS011;4517;49.020;12.066;2023-01-15T03:47:55;9.70;;;9.10;;
8964;SDS011;4517;49.020;12.066;2023-01-15T03:50:43;8.83;;;8.33;;
8964;SDS011;4517;49.020;12.066;2023-01-15T03:56:12;10.70;;;8.83;;
8964;SDS011;4517;49.020;12.066;2023-01-15T04:01:29;9.73;;;9.10;;
8964;SDS011;4517;49.020;12.066;2023-01-15T04:03:58;9.43;;;8.83;;
8964;SDS011;4517;49.020;12.066;2023-01-15T04:06:26;10.17;;;9.40;;
8964;SDS011;4517;49.020;12.066;2023-01-15T04:08:54;9.80;;;9.00;;
8964;SDS011;4517;49.020;12.066;2023-01-15T04:11:22;10.13;;;9.43;;
8964;SDS011;4517;49.020;12.066;2023-01-15T04:13:49;10.30;;;9.63;;
8964;SDS011;4517;49.020;12.066;2023-01-15T04:16:16;9.40;;;8.63;;
8964;SDS011;4517;49.020;12.066;2023-01-15T04:18:54;9.47;;;8.77;;
8964;SDS011;4517;49.020;12.066;2023-01-15T04:21:20;10.20;;;9.50;;
8964;SDS011;4517;49.020;12.066;2023-01-15T04:23:46;9.87;;;9.27;;
8964;SDS011;4517;49.020;12.066;2023-01-15T04:26:12;10.40;;;9.53;;
8964;SDS011;4517;49.020;12.066;2023-01-15T04:28:38;9.20;;;8.70;;
8964;SDS011;4517;49.020;12.066;2023-01-15T04:31:03;9.67;;;9.03;;
8964;SDS011;4517;49.020;12.066;2023-01-15T04:33:29;9.03;;;8.33;;
8964;SDS011;4517;49.020;12.066;2023-01-15T04:35:57;8.47;;;7.87;;
8964;SDS011;4517;49.020;12.066;2023-01-15T04:38:25;9.73;;;9.10;;
8964;SDS011;4517;49.020;12.066;2023-01-15T04:40:50;10.00;;;9.30;;
8964;SDS011;4517;49.020;12.066;2023-01-15T04:43:35;10.77;;;10.07;;
8964;SDS011;4517;49.020;12.066;2023-01-15T04:46:22;9.17;;;8.67;;
8964;SDS011;4517;49.020;12.066;2023-01-15T04:48:48;9.43;;;8.70;;
8964;SDS011;4517;49.020;12.066;2023-01-15T04:51:14;9.63;;;8.93;;
8964;SDS011;4517;49.020;12.066;2023-01-15T04:53:40;10.93;;;8.30;;
8964;SDS011;4517;49.020;12.066;2023-01-15T04:56:05;9.03;;;8.43;;
8964;SDS011;4517;49.020;12.066;2023-01-15T04:58:31;9.10;;;8.47;;
8964;SDS011;4517;49.020;12.066;2023-01-15T05:00:58;9.20;;;8.50;;
8964;SDS011;4517;49.020;12.066;2023-01-15T05:03:25;9.83;;;9.03;;
8964;SDS011;4517;49.020;12.066;2023-01-15T05:05:51;9.17;;;8.50;;
8964;SDS011;4517;49.020;12.066;2023-01-15T05:08:16;9.33;;;8.70;;
8964;SDS011;4517;49.020;12.066;2023-01-15T05:10:42;9.00;;;8.40;;
8964;SDS011;4517;49.020;12.066;2023-01-15T05:13:08;12.80;;;8.40;;
8964;SDS011;4517;49.020;12.066;2023-01-15T05:15:33;8.53;;;7.77;;
8964;SDS011;4517;49.020;12.066;2023-01-15T05:17:59;11.20;;;8.77;;
8964;SDS011;4517;49.020;12.066;2023-01-15T05:20:24;9.53;;;8.63;;
8964;SDS011;4517;49.020;12.066;2023-01-15T05:22:50;8.77;;;8.27;;
8964;SDS011;4517;49.020;12.066;2023-01-15T05:25:15;8.83;;;8.23;;
8964;SDS011;4517;49.020;12.066;2023-01-15T05:27:41;9.27;;;8.57;;
8964;SDS011;4517;49.020;12.066;2023-01-15T05:30:07;8.53;;;8.03;;
8964;SDS011;4517;49.020;12.066;2023-01-15T05:32:33;9.70;;;8.90;;
8964;SDS011;4517;49.020;12.066;2023-01-15T05:34:58;10.77;;;8.67;;
8964;SDS011;4517;49.020;12.066;2023-01-15T05:37:24;8.90;;;8.40;;
8964;SDS011;4517;49.020;12.066;2023-01-15T05:39:50;9.03;;;8.10;;
8964;SDS011;4517;49.020;12.066;2023-01-15T05:42:15;9.50;;;7.77;;
8964;SDS011;4517;49.020;12.066;2023-01-15T05:44:41;9.70;;;7.53;;
8964;SDS011;4517;49.020;12.066;2023-01-15T05:47:08;9.27;;;8.40;;
8964;SDS011;4517;49.020;12.066;2023-01-15T05:49:34;8.77;;;7.97;;
8964;SDS011;4517;49.020;12.066;2023-01-15T05:51:59;8.70;;;8.10;;
8964;SDS011;4517;49.020;12.066;2023-01-15T05:54:27;9.00;;;8.37;;
8964;SDS011;4517;49.020;12.066;2023-01-15T05:56:55;8.70;;;8.10;;
8964;SDS011;4517;49.020;12.066;2023-01-15T05:59:22;8.70;;;8.00;;
8964;SDS011;4517;49.020;12.066;2023-01-15T06:01:49;10.37;;;8.00;;
8964;SDS011;4517;49.020;12.066;2023-01-15T06:04:15;8.20;;;7.60;;
8964;SDS011;4517;49.020;12.066;2023-01-15T06:06:45;8.93;;;8.13;;
8964;SDS011;4517;49.020;12.066;2023-01-15T06:09:11;8.47;;;7.87;;
8964;SDS011;4517;49.020;12.066;2023-01-15T06:11:37;9.40;;;8.50;;
8964;SDS011;4517;49.020;12.066;2023-01-15T06:14:04;12.40;;;8.07;;
8964;SDS011;4517;49.020;12.066;2023-01-15T06:16:30;8.23;;;7.43;;
8964;SDS011;4517;49.020;12.066;2023-01-15T06:19:00;8.50;;;7.63;;
8964;SDS011;4517;49.020;12.066;2023-01-15T06:21:28;8.80;;;8.00;;
8964;SDS011;4517;49.020;12.066;2023-01-15T06:23:54;8.33;;;7.63;;
8964;SDS011;4517;49.020;12.066;2023-01-15T06:26:20;8.60;;;8.07;;
8964;SDS011;4517;49.020;12.066;2023-01-15T06:28:45;10.50;;;8.10;;
8964;SDS011;4517;49.020;12.066;2023-01-15T06:31:12;9.73;;;7.60;;
8964;SDS011;4517;49.020;12.066;2023-01-15T06:33:40;8.90;;;8.30;;
8964;SDS011;4517;49.020;12.066;2023-01-15T06:36:06;8.47;;;7.77;;
8964;SDS011;4517;49.020;12.066;2023-01-15T06:38:43;8.47;;;7.80;;
8964;SDS011;4517;49.020;12.066;2023-01-15T06:41:11;9.17;;;8.47;;
8964;SDS011;4517;49.020;12.066;2023-01-15T06:43:57;9.93;;;8.07;;
8964;SDS011;4517;49.020;12.066;2023-01-15T06:46:46;9.10;;;8.30;;
8964;SDS011;4517;49.020;12.066;2023-01-15T06:49:32;8.20;;;7.57;;
8964;SDS011;4517;49.020;12.066;2023-01-15T06:51:59;7.63;;;7.13;;
8964;SDS011;4517;49.020;12.066;2023-01-15T06:54:25;8.00;;;7.40;;
8964;SDS011;4517;49.020;12.066;2023-01-15T06:56:51;7.60;;;7.00;;
8964;SDS011;4517;49.020;12.066;2023-01-15T06:59:17;7.70;;;7.00;;
8964;SDS011;4517;49.020;12.066;2023-01-15T07:01:44;7.37;;;6.77;;
8964;SDS011;4517;49.020;12.066;2023-01-15T07:04:09;6.80;;;6.40;;
8964;SDS011;4517;49.020;12.066;2023-01-15T07:06:35;7.93;;;7.43;;
8964;SDS011;4517;49.020;12.066;2023-01-15T07:09:00;9.67;;;7.63;;
8964;SDS011;4517;49.020;12.066;2023-01-15T07:11:26;8.17;;;7.57;;
8964;SDS011;4517;49.020;12.066;2023-01-15T07:13:52;6.70;;;6.30;;
8964;SDS011;4517;49.020;12.066;2023-01-15T07:16:33;7.90;;;6.97;;
8964;SDS011;4517;49.020;12.066;2023-01-15T07:19:00;6.97;;;6.50;;
8964;SDS011;4517;49.020;12.066;2023-01-15T07:21:26;7.17;;;6.77;;
8964;SDS011;4517;49.020;12.066;2023-01-15T07:23:52;8.43;;;7.83;;
8964;SDS011;4517;49.020;12.066;2023-01-15T07:26:18;8.60;;;7.87;;
8964;SDS011;4517;49.020;12.066;2023-01-15T07:28:43;7.97;;;7.47;;
8964;SDS011;4517;49.020;12.066;2023-01-15T07:31:09;7.37;;;6.87;;
8964;SDS011;4517;49.020;12.066;2023-01-15T07:33:35;7.60;;;7.20;;
8964;SDS011;4517;49.020;12.066;2023-01-15T07:36:04;7.40;;;6.90;;
8964;SDS011;4517;49.020;12.066;2023-01-15T07:38:29;8.03;;;7.43;;
8964;SDS011;4517;49.020;12.066;2023-01-15T07:40:55;6.30;;;6.00;;
8964;SDS011;4517;49.020;12.066;2023-01-15T07:43:40;7.00;;;6.50;;
8964;SDS011;4517;49.020;12.066;2023-01-15T07:46:25;6.97;;;6.57;;
8964;SDS011;4517;49.020;12.066;2023-01-15T07:49:09;6.30;;;5.40;;
8964;SDS011;4517;49.020;12.066;2023-01-15T07:51:54;6.33;;;6.03;;
8964;SDS011;4517;49.020;12.066;2023-01-15T07:54:20;7.53;;;7.03;;
8964;SDS011;4517;49.020;12.066;2023-01-15T07:56:45;6.97;;;6.53;;
8964;SDS011;4517;49.020;12.066;2023-01-15T07:59:11;7.17;;;6.77;;
8964;SDS011;4517;49.020;12.066;2023-01-15T08:01:37;7.13;;;6.63;;
8964;SDS011;4517;49.020;12.066;2023-01-15T08:04:02;7.57;;;6.97;;
8964;SDS011;4517;49.020;12.066;2023-01-15T08:06:28;7.87;;;7.27;;
8964;SDS011;4517;49.020;12.066;2023-01-15T08:08:53;6.90;;;6.50;;
8964;SDS011;4517;49.020;12.066;2023-01-15T08:11:19;7.53;;;6.93;;
8964;SDS011;4517;49.020;12.066;2023-01-15T08:14:03;7.03;;;6.40;;
8964;SDS011;4517;49.020;12.066;2023-01-15T08:16:47;6.20;;;5.90;;
8964;SDS011;4517;49.020;12.066;2023-01-15T08:19:13;8.10;;;7.30;;
8964;SDS011;4517;49.020;12.066;2023-01-15T08:21:38;7.23;;;6.63;;
8964;SDS011;4517;49.020;12.066;2023-01-15T08:24:04;8.30;;;7.50;;
8964;SDS011;4517;49.020;12.066;2023-01-15T08:26:29;7.40;;;7.00;;
8964;SDS011;4517;49.020;12.066;2023-01-15T08:28:55;7.20;;;6.57;;
8964;SDS011;4517;49.020;12.066;2023-01-15T08:31:20;8.47;;;7.30;;
8964;SDS011;4517;49.020;12.066;2023-01-15T08:33:46;8.10;;;7.60;;
8964;SDS011;4517;49.020;12.066;2023-01-15T08:36:12;7.90;;;7.40;;
8964;SDS011;4517;49.020;12.066;2023-01-15T08:38:38;7.90;;;7.50;;
8964;SDS011;4517;49.020;12.066;2023-01-15T08:41:04;8.77;;;8.03;;
8964;SDS011;4517;49.020;12.066;2023-01-15T08:43:31;7.63;;;7.23;;
8964;SDS011;4517;49.020;12.066;2023-01-15T08:46:00;8.13;;;7.63;;
8964;SDS011;4517;49.020;12.066;2023-01-15T08:48:28;7.70;;;7.20;;
8964;SDS011;4517;49.020;12.066;2023-01-15T08:50:54;8.40;;;7.90;;
8964;SDS011;4517;49.020;12.066;2023-01-15T08:53:20;8.87;;;8.17;;
8964;SDS011;4517;49.020;12.066;2023-01-15T08:55:46;8.33;;;7.63;;
8964;SDS011;4517;49.020;12.066;2023-01-15T08:58:13;9.20;;;8.30;;
8964;SDS011;4517;49.020;12.066;2023-01-15T09:00:39;10.03;;;9.23;;
8964;SDS011;4517;49.020;12.066;2023-01-15T09:03:04;10.10;;;9.10;;
8964;SDS011;4517;49.020;12.066;2023-01-15T09:05:30;13.60;;;12.57;;
8964;SDS011;4517;49.020;12.066;2023-01-15T09:07:56;10.30;;;9.30;;
8964;SDS011;4517;49.020;12.066;2023-01-15T09:10:21;9.50;;;8.50;;
8964;SDS011;4517;49.020;12.066;2023-01-15T09:12:47;10.37;;;9.57;;
8964;SDS011;4517;49.020;12.066;2023-01-15T09:15:13;8.97;;;8.37;;
8964;SDS011;4517;49.020;12.066;2023-01-15T09:17:39;8.03;;;7.43;;
8964;SDS011;4517;49.020;12.066;2023-01-15T09:20:06;9.07;;;8.27;;
8964;SDS011;4517;49.020;12.066;2023-01-15T09:22:33;7.40;;;7.00;;
8964;SDS011;4517;49.020;12.066;2023-01-15T09:24:59;7.80;;;7.30;;
8964;SDS011;4517;49.020;12.066;2023-01-15T09:27:25;11.13;;;7.53;;
8964;SDS011;4517;49.020;12.066;2023-01-15T09:29:52;7.10;;;6.70;;
8964;SDS011;4517;49.020;12.066;2023-01-15T09:32:17;8.20;;;7.30;;
8964;SDS011;4517;49.020;12.066;2023-01-15T09:34:43;7.70;;;7.00;;
8964;SDS011;4517;49.020;12.066;2023-01-15T09:37:08;5.57;;;5.37;;
8964;SDS011;4517;49.020;12.066;2023-01-15T09:39:36;6.77;;;6.50;;
8964;SDS011;4517;49.020;12.066;2023-01-15T09:45:06;4.90;;;4.70;;
8964;SDS011;4517;49.020;12.066;2023-01-15T09:55:46;5.87;;;5.67;;
8964;SDS011;4517;49.020;12.066;2023-01-15T09:58:14;5.80;;;5.60;;
8964;SDS011;4517;49.020;12.066;2023-01-15T10:00:45;5.20;;;5.10;;
8964;SDS011;4517;49.020;12.066;2023-01-15T10:03:20;4.50;;;4.40;;
8964;SDS011;4517;49.020;12.066;2023-01-15T10:06:09;5.47;;;5.37;;
8964;SDS011;4517;49.020;12.066;2023-01-15T10:08:48;5.63;;;5.43;;
8964;SDS011;4517;49.020;12.066;2023-01-15T10:16:25;4.70;;;4.53;;
8964;SDS011;4517;49.020;12.066;2023-01-15T10:18:53;4.80;;;4.70;;
8964;SDS011;4517;49.020;12.066;2023-01-15T10:24:21;5.10;;;5.00;;
8964;SDS011;4517;49.020;12.066;2023-01-15T10:27:20;6.10;;;5.90;;
8964;SDS011;4517;49.020;12.066;2023-01-15T10:29:48;5.47;;;5.27;;
8964;SDS011;4517;49.020;12.066;2023-01-15T10:35:26;5.77;;;5.57;;
8964;SDS011;4517;49.020;12.066;2023-01-15T10:40:43;6.73;;;6.47;;
8964;SDS011;4517;49.020;12.066;2023-01-15T10:44:09;6.30;;;6.00;;
8964;SDS011;4517;49.020;12.066;2023-01-15T10:46:58;6.57;;;6.30;;
8964;SDS011;4517;49.020;12.066;2023-01-15T10:49:26;6.40;;;6.20;;
8964;SDS011;4517;49.020;12.066;2023-01-15T10:54:35;6.27;;;6.07;;
8964;SDS011;4517;49.020;12.066;2023-01-15T10:57:09;5.90;;;5.70;;
8964;SDS011;4517;49.020;12.066;2023-01-15T11:02:17;5.00;;;4.80;;
8964;SDS011;4517;49.020;12.066;2023-01-15T11:04:48;5.63;;;5.43;;
8964;SDS011;4517;49.020;12.066;2023-01-15T11:07:13;6.10;;;5.90;;
8964;SDS011;4517;49.020;12.066;2023-01-15T11:09:41;6.60;;;6.30;;
8964;SDS011;4517;49.020;12.066;2023-01-15T11:12:14;5.20;;;5.10;;
8964;SDS011;4517;49.020;12.066;2023-01-15T11:14:45;5.67;;;5.37;;
8964;SDS011;4517;49.020;12.066;2023-01-15T11:17:35;8.60;;;8.10;;
8964;SDS011;4517;49.020;12.066;2023-01-15T11:20:28;6.37;;;6.07;;
8964;SDS011;4517;49.020;12.066;2023-01-15T11:23:19;6.03;;;5.83;;
8964;SDS011;4517;49.020;12.066;2023-01-15T11:25:50;5.27;;;5.07;;
8964;SDS011;4517;49.020;12.066;2023-01-15T11:28:28;6.20;;;6.00;;
8964;SDS011;4517;49.020;12.066;2023-01-15T11:30:55;6.90;;;6.60;;
8964;SDS011;4517;49.020;12.066;2023-01-15T11:33:25;6.40;;;6.10;;
8964;SDS011;4517;49.020;12.066;2023-01-15T11:35:55;6.87;;;6.50;;
8964;SDS011;4517;49.020;12.066;2023-01-15T11:38:24;6.63;;;6.33;;
8964;SDS011;4517;49.020;12.066;2023-01-15T11:40:55;6.30;;;6.10;;
8964;SDS011;4517;49.020;12.066;2023-01-15T11:43:25;6.50;;;6.20;;
8964;SDS011;4517;49.020;12.066;2023-01-15T11:49:15;5.73;;;5.53;;
8964;SDS011;4517;49.020;12.066;2023-01-15T11:52:01;6.37;;;6.07;;
8964;SDS011;4517;49.020;12.066;2023-01-15T11:54:29;6.30;;;6.10;;
8964;SDS011;4517;49.020;12.066;2023-01-15T11:56:57;6.60;;;6.40;;
8964;SDS011;4517;49.020;12.066;2023-01-15T11:59:23;6.30;;;6.10;;
8964;SDS011;4517;49.020;12.066;2023-01-15T12:01:53;6.47;;;6.27;;
8964;SDS011;4517;49.020;12.066;2023-01-15T12:04:32;6.90;;;6.40;;
8964;SDS011;4517;49.020;12.066;2023-01-15T12:07:01;5.07;;;4.97;;
8964;SDS011;4517;49.020;12.066;2023-01-15T12:14:51;5.97;;;5.77;;
8964;SDS011;4517;49.020;12.066;2023-01-15T12:17:49;6.47;;;6.27;;
8964;SDS011;4517;49.020;12.066;2023-01-15T12:23:36;5.40;;;5.20;;
8964;SDS011;4517;49.020;12.066;2023-01-15T12:26:20;6.63;;;6.43;;
8964;SDS011;4517;49.020;12.066;2023-01-15T12:42:19;6.23;;;5.93;;
8964;SDS011;4517;49.020;12.066;2023-01-15T12:45:08;6.17;;;5.97;;
8964;SDS011;4517;49.020;12.066;2023-01-15T12:47:47;6.70;;;6.50;;
8964;SDS011;4517;49.020;12.066;2023-01-15T12:52:48;6.57;;;6.37;;
8964;SDS011;4517;49.020;12.066;2023-01-15T12:55:25;7.10;;;6.80;;
8964;SDS011;4517;49.020;12.066;2023-01-15T12:57:55;7.20;;;6.70;;
8964;SDS011;4517;49.020;12.066;2023-01-15T13:02:59;6.90;;;6.60;;
8964;SDS011;4517;49.020;12.066;2023-01-15T13:05:29;6.00;;;5.80;;
8964;SDS011;4517;49.020;12.066;2023-01-15T13:07:59;6.77;;;6.47;;
8964;SDS011;4517;49.020;12.066;2023-01-15T13:10:36;6.40;;;6.10;;
8964;SDS011;4517;49.020;12.066;2023-01-15T13:13:16;5.73;;;5.53;;
8964;SDS011;4517;49.020;12.066;2023-01-15T13:15:56;6.30;;;6.00;;
8964;SDS011;4517;49.020;12.066;2023-01-15T13:21:16;6.10;;;5.90;;
8964;SDS011;4517;49.020;12.066;2023-01-15T13:24:00;6.53;;;6.33;;
8964;SDS011;4517;49.020;12.066;2023-01-15T13:26:59;6.10;;;5.90;;
8964;SDS011;4517;49.020;12.066;2023-01-15T13:29:40;5.80;;;5.60;;
8964;SDS011;4517;49.020;12.066;2023-01-15T13:32:28;7.17;;;6.77;;
8964;SDS011;4517;49.020;12.066;2023-01-15T13:35:09;5.80;;;5.60;;
8964;SDS011;4517;49.020;12.066;2023-01-15T13:37:46;6.80;;;6.47;;
8964;SDS011;4517;49.020;12.066;2023-01-15T13:42:46;6.17;;;5.77;;
8964;SDS011;4517;49.020;12.066;2023-01-15T13:47:42;6.10;;;5.80;;
8964;SDS011;4517;49.020;12.066;2023-01-15T13:50:14;5.60;;;5.40;;
8964;SDS011;4517;49.020;12.066;2023-01-15T13:52:43;5.90;;;5.70;;
8964;SDS011;4517;49.020;12.066;2023-01-15T13:55:28;5.90;;;5.70;;
8964;SDS011;4517;49.020;12.066;2023-01-15T13:57:56;5.30;;;5.00;;
8964;SDS011;4517;49.020;12.066;2023-01-15T14:00:29;5.70;;;5.50;;
8964;SDS011;4517;49.020;12.066;2023-01-15T14:03:01;6.20;;;5.90;;
8964;SDS011;4517;49.020;12.066;2023-01-15T14:05:54;5.30;;;5.10;;
8964;SDS011;4517;49.020;12.066;2023-01-15T14:08:24;5.77;;;5.57;;
8964;SDS011;4517;49.020;12.066;2023-01-15T14:10:52;5.87;;;5.67;;
8964;SDS011;4517;49.020;12.066;2023-01-15T14:13:40;6.00;;;5.80;;
8964;SDS011;4517;49.020;12.066;2023-01-15T14:19:23;5.20;;;5.10;;
8964;SDS011;4517;49.020;12.066;2023-01-15T14:24:42;10.87;;;10.47;;
8964;SDS011;4517;49.020;12.066;2023-01-15T14:27:39;5.70;;;5.50;;
8964;SDS011;4517;49.020;12.066;2023-01-15T14:36:36;5.90;;;5.70;;
8964;SDS011;4517;49.020;12.066;2023-01-15T14:39:23;5.80;;;5.60;;
8964;SDS011;4517;49.020;12.066;2023-01-15T14:41:56;4.97;;;4.87;;
8964;SDS011;4517;49.020;12.066;2023-01-15T14:44:44;5.30;;;5.10;;
8964;SDS011;4517;49.020;12.066;2023-01-15T14:47:17;6.00;;;5.80;;
8964;SDS011;4517;49.020;12.066;2023-01-15T14:49:57;15.10;;;13.97;;
8964;SDS011;4517;49.020;12.066;2023-01-15T14:52:25;5.60;;;5.40;;
8964;SDS011;4517;49.020;12.066;2023-01-15T14:54:51;5.60;;;5.40;;
8964;SDS011;4517;49.020;12.066;2023-01-15T14:57:18;5.43;;;5.23;;
8964;SDS011;4517;49.020;12.066;2023-01-15T14:59:53;6.77;;;6.47;;
8964;SDS011;4517;49.020;12.066;2023-01-15T15:02:25;5.63;;;5.43;;
8964;SDS011;4517;49.020;12.066;2023-01-15T15:04:58;5.73;;;5.53;;
8964;SDS011;4517;49.020;12.066;2023-01-15T15:07:26;5.30;;;5.10;;
8964;SDS011;4517;49.020;12.066;2023-01-15T15:09:57;5.97;;;5.77;;
8964;SDS011;4517;49.020;12.066;2023-01-15T15:12:52;6.20;;;5.90;;
8964;SDS011;4517;49.020;12.066;2023-01-15T15:18:42;6.30;;;6.00;;
8964;SDS011;4517;49.020;12.066;2023-01-15T15:21:15;6.00;;;5.80;;
8964;SDS011;4517;49.020;12.066;2023-01-15T15:23:48;6.87;;;6.57;;
8964;SDS011;4517;49.020;12.066;2023-01-15T15:26:25;6.90;;;6.60;;
8964;SDS011;4517;49.020;12.066;2023-01-15T15:29:25;6.80;;;6.60;;
8964;SDS011;4517;49.020;12.066;2023-01-15T15:31:45;6.93;;;6.63;;
8964;SDS011;4517;49.020;12.066;2023-01-15T15:36:59;6.80;;;6.50;;
8964;SDS011;4517;49.020;12.066;2023-01-15T15:39:28;6.53;;;6.30;;
8964;SDS011;4517;49.020;12.066;2023-01-15T15:42:13;7.67;;;7.03;;
8964;SDS011;4517;49.020;12.066;2023-01-15T15:45:21;6.87;;;6.57;;
8964;SDS011;4517;49.020;12.066;2023-01-15T15:48:09;7.10;;;6.70;;
8964;SDS011;4517;49.020;12.066;2023-01-15T15:51:00;7.00;;;6.70;;
8964;SDS011;4517;49.020;12.066;2023-01-15T15:53:27;7.77;;;7.37;;
8964;SDS011;4517;49.020;12.066;2023-01-15T15:55:53;7.73;;;7.33;;
8964;SDS011;4517;49.020;12.066;2023-01-15T15:58:30;6.43;;;6.23;;
8964;SDS011;4517;49.020;12.066;2023-01-15T16:00:57;6.30;;;6.00;;
8964;SDS011;4517;49.020;12.066;2023-01-15T16:03:25;7.10;;;6.60;;
8964;SDS011;4517;49.020;12.066;2023-01-15T16:05:56;7.73;;;7.43;;
8964;SDS011;4517;49.020;12.066;2023-01-15T16:08:28;7.13;;;6.80;;
8964;SDS011;4517;49.020;12.066;2023-01-15T16:11:16;7.53;;;7.07;;
8964;SDS011;4517;49.020;12.066;2023-01-15T16:13:45;6.77;;;6.37;;
8964;SDS011;4517;49.020;12.066;2023-01-15T16:16:13;6.83;;;6.53;;
8964;SDS011;4517;49.020;12.066;2023-01-15T16:18:56;7.43;;;7.03;;
8964;SDS011;4517;49.020;12.066;2023-01-15T16:21:27;6.47;;;6.17;;
8964;SDS011;4517;49.020;12.066;2023-01-15T16:23:59;6.13;;;5.80;;
8964;SDS011;4517;49.020;12.066;2023-01-15T16:29:16;6.97;;;6.57;;
8964;SDS011;4517;49.020;12.066;2023-01-15T16:31:44;6.77;;;6.47;;
8964;SDS011;4517;49.020;12.066;2023-01-15T16:34:10;10.47;;;5.77;;
8964;SDS011;4517;49.020;12.066;2023-01-15T16:36:42;6.33;;;6.13;;
8964;SDS011;4517;49.020;12.066;2023-01-15T16:39:43;7.03;;;6.80;;
8964;SDS011;4517;49.020;12.066;2023-01-15T16:42:22;7.53;;;7.13;;
8964;SDS011;4517;49.020;12.066;2023-01-15T16:44:58;8.13;;;7.57;;
8964;SDS011;4517;49.020;12.066;2023-01-15T16:47:33;6.63;;;6.33;;
8964;SDS011;4517;49.020;12.066;2023-01-15T16:50:24;6.80;;;6.50;;
8964;SDS011;4517;49.020;12.066;2023-01-15T16:52:54;6.40;;;6.10;;
8964;SDS011;4517;49.020;12.066;2023-01-15T17:00:57;7.47;;;6.90;;
8964;SDS011;4517;49.020;12.066;2023-01-15T17:03:26;7.67;;;7.23;;
8964;SDS011;4517;49.020;12.066;2023-01-15T17:05:53;7.73;;;7.33;;
8964;SDS011;4517;49.020;12.066;2023-01-15T17:11:01;9.23;;;7.13;;
8964;SDS011;4517;49.020;12.066;2023-01-15T17:13:34;6.93;;;6.63;;
8964;SDS011;4517;49.020;12.066;2023-01-15T17:16:03;6.70;;;6.40;;
8964;SDS011;4517;49.020;12.066;2023-01-15T17:18:31;7.47;;;6.97;;
8964;SDS011;4517;49.020;12.066;2023-01-15T17:20:57;6.60;;;6.30;;
8964;SDS011;4517;49.020;12.066;2023-01-15T17:23:25;7.23;;;6.73;;
8964;SDS011;4517;49.020;12.066;2023-01-15T17:25:52;7.50;;;6.90;;
8964;SDS011;4517;49.020;12.066;2023-01-15T17:28:19;6.93;;;6.53;;